sensor_id;sensor_type;location;lat;lon;timestamp;pressure;altitude;pressure_sealevel;temperature;humidity
4836;BME280;66719;51.226;6.902;2023-08-12T00:01:01;101038.81;;;21.07;100.00
4836;BME280;66719;51.226;6.902;2023-08-12T00:03:28;101027.97;;;21.10;100.00
4836;BME280;66719;51.226;6.902;2023-08-12T00:05:55;101027.97;;;21.10;100.00
4836;BME280;66719;51.226;6.902;2023-08-12T00:08:22;101025.28;;;21.10;100.00
4836;BME280;66719;51.226;6.902;2023-08-12T00:10:49;101036.03;;;21.09;100.00
4836;BME280;66719;51.226;6.902;2023-08-12T00:13:16;101028.16;;;21.07;100.00
4836;BME280;66719;51.226;6.902;2023-08-12T00:15:44;101027.09;;;21.10;100.00
4836;BME280;66719;51.226;6.902;2023-08-12T00:18:11;101021.97;;;21.07;100.00
4836;BME280;66719;51.226;6.902;2023-08-12T00:20:38;101016.72;;;21.05;100.00
4836;BME280;66719;51.226;6.902;2023-08-12T00:23:04;101017.50;;;21.07;100.00
4836;BME280;66719;51.226;6.902;2023-08-12T00:25:31;101011.31;;;21.07;100.00
4836;BME280;66719;51.226;6.902;2023-08-12T00:27:57;101013.97;;;21.07;100.00
4836;BME280;66719;51.226;6.902;2023-08-12T00:30:24;101016.72;;;21.05;100.00
4836;BME280;66719;51.226;6.902;2023-08-12T00:32:50;101022.06;;;21.05;100.00
4836;BME280;66719;51.226;6.902;2023-08-12T00:35:17;101008.91;;;21.02;100.00
4836;BME280;66719;51.226;6.902;2023-08-12T00:37:45;101017.84;;;21.01;100.00
4836;BME280;66719;51.226;6.902;2023-08-12T00:40:12;101002.72;;;21.02;100.00
4836;BME280;66719;51.226;6.902;2023-08-12T00:42:39;101008.03;;;21.02;100.00
4836;BME280;66719;51.226;6.902;2023-08-12T00:45:09;100999.38;;;20.98;100.00
4836;BME280;66719;51.226;6.902;2023-08-12T00:47:37;101006.44;;;20.99;100.00
4836;BME280;66719;51.226;6.902;2023-08-12T00:50:04;101003.00;;;20.97;100.00
4836;BME280;66719;51.226;6.902;2023-08-12T00:52:31;101005.66;;;20.97;100.00
4836;BME280;66719;51.226;6.902;2023-08-12T00:54:58;101007.38;;;20.98;100.00
4836;BME280;66719;51.226;6.902;2023-08-12T00:57:25;101002.22;;;20.95;100.00
4836;BME280;66719;51.226;6.902;2023-08-12T00:59:52;100991.50;;;20.97;100.00
4836;BME280;66719;51.226;6.902;2023-08-12T01:02:21;100992.34;;;20.97;100.00
4836;BME280;66719;51.226;6.902;2023-08-12T01:04:47;100986.16;;;20.97;100.00
4836;BME280;66719;51.226;6.902;2023-08-12T01:07:14;100988.91;;;20.95;100.00
4836;BME280;66719;51.226;6.902;2023-08-12T01:09:40;100978.31;;;20.94;100.00
4836;BME280;66719;51.226;6.902;2023-08-12T01:12:14;100985.47;;;20.93;100.00
4836;BME280;66719;51.226;6.902;2023-08-12T01:15:01;100985.47;;;20.93;100.00
4836;BME280;66719;51.226;6.902;2023-08-12T01:17:32;100977.47;;;20.93;100.00
4836;BME280;66719;51.226;6.902;2023-08-12T01:20:01;100979.38;;;20.91;100.00
4836;BME280;66719;51.226;6.902;2023-08-12T01:22:37;100967.78;;;20.92;100.00
4836;BME280;66719;51.226;6.902;2023-08-12T01:25:06;100974.03;;;20.91;100.00
4836;BME280;66719;51.226;6.902;2023-08-12T01:27:35;100967.97;;;20.89;100.00
4836;BME280;66719;51.226;6.902;2023-08-12T01:30:02;100971.66;;;20.86;100.00
4836;BME280;66719;51.226;6.902;2023-08-12T01:32:42;100967.28;;;20.85;100.00
4836;BME280;66719;51.226;6.902;2023-08-12T01:35:15;100969.25;;;20.82;100.00
4836;BME280;66719;51.226;6.902;2023-08-12T01:37:44;100958.59;;;20.82;100.00
4836;BME280;66719;51.226;6.902;2023-08-12T01:40:11;100955.94;;;20.82;100.00
4836;BME280;66719;51.226;6.902;2023-08-12T01:42:40;100945.19;;;20.83;100.00
4836;BME280;66719;51.226;6.902;2023-08-12T01:45:07;100943.50;;;20.82;100.00
4836;BME280;66719;51.226;6.902;2023-08-12T01:47:34;100945.47;;;20.79;100.00
4836;BME280;66719;51.226;6.902;2023-08-12T01:50:00;100945.56;;;20.77;100.00
4836;BME280;66719;51.226;6.902;2023-08-12T01:52:27;100939.31;;;20.78;100.00
4836;BME280;66719;51.226;6.902;2023-08-12T01:54:55;100946.34;;;20.79;100.00
4836;BME280;66719;51.226;6.902;2023-08-12T01:57:21;100941.09;;;20.78;100.00
4836;BME280;66719;51.226;6.902;2023-08-12T01:59:48;100934.94;;;20.77;100.00
4836;BME280;66719;51.226;6.902;2023-08-12T02:02:15;100937.66;;;20.76;100.00
4836;BME280;66719;51.226;6.902;2023-08-12T02:04:41;100931.56;;;20.74;100.00
4836;BME280;66719;51.226;6.902;2023-08-12T02:07:09;100934.13;;;20.75;100.00
4836;BME280;66719;51.226;6.902;2023-08-12T02:09:36;100916.53;;;20.73;100.00
4836;BME280;66719;51.226;6.902;2023-08-12T02:12:03;100914.84;;;20.72;100.00
4836;BME280;66719;51.226;6.902;2023-08-12T02:14:30;100917.59;;;20.70;100.00
4836;BME280;66719;51.226;6.902;2023-08-12T02:16:56;100922.91;;;20.70;100.00
4836;BME280;66719;51.226;6.902;2023-08-12T02:19:23;100913.13;;;20.71;100.00
4836;BME280;66719;51.226;6.902;2023-08-12T02:21:49;100911.41;;;20.70;100.00
4836;BME280;66719;51.226;6.902;2023-08-12T02:24:16;100910.56;;;20.69;100.00
4836;BME280;66719;51.226;6.902;2023-08-12T02:26:42;100908.00;;;20.68;100.00
4836;BME280;66719;51.226;6.902;2023-08-12T02:29:09;100909.84;;;20.66;100.00
4836;BME280;66719;51.226;6.902;2023-08-12T02:31:36;100904.72;;;20.63;100.00
4836;BME280;66719;51.226;6.902;2023-08-12T02:34:02;100914.41;;;20.64;100.00
4836;BME280;66719;51.226;6.902;2023-08-12T02:36:30;100911.94;;;20.60;100.00
4836;BME280;66719;51.226;6.902;2023-08-12T02:38:56;100902.31;;;20.58;100.00
4836;BME280;66719;51.226;6.902;2023-08-12T02:41:23;100903.34;;;20.55;100.00
4836;BME280;66719;51.226;6.902;2023-08-12T02:43:49;100914.75;;;20.57;100.00
4836;BME280;66719;51.226;6.902;2023-08-12T02:46:16;100907.72;;;20.56;100.00
4836;BME280;66719;51.226;6.902;2023-08-12T02:48:45;100913.03;;;20.56;100.00
4836;BME280;66719;51.226;6.902;2023-08-12T02:51:13;100912.09;;;20.57;100.00
4836;BME280;66719;51.226;6.902;2023-08-12T02:53:40;100904.09;;;20.57;100.00
4836;BME280;66719;51.226;6.902;2023-08-12T02:56:07;100902.41;;;20.56;100.00
4836;BME280;66719;51.226;6.902;2023-08-12T02:58:33;100904.28;;;20.54;100.00
4836;BME280;66719;51.226;6.902;2023-08-12T03:01:00;100900.59;;;20.57;100.00
4836;BME280;66719;51.226;6.902;2023-08-12T03:03:27;100893.56;;;20.56;100.00
4836;BME280;66719;51.226;6.902;2023-08-12T03:05:57;100890.91;;;20.56;100.00
4836;BME280;66719;51.226;6.902;2023-08-12T03:08:23;100894.50;;;20.55;100.00
4836;BME280;66719;51.226;6.902;2023-08-12T03:10:50;100899.16;;;20.51;100.00
4836;BME280;66719;51.226;6.902;2023-08-12T03:13:16;100894.78;;;20.50;100.00
4836;BME280;66719;51.226;6.902;2023-08-12T03:15:43;100899.16;;;20.51;100.00
4836;BME280;66719;51.226;6.902;2023-08-12T03:18:09;100891.94;;;20.53;100.00
4836;BME280;66719;51.226;6.902;2023-08-12T03:20:36;100880.69;;;20.48;100.00
4836;BME280;66719;51.226;6.902;2023-08-12T03:23:03;100869.19;;;20.48;100.00
4836;BME280;66719;51.226;6.902;2023-08-12T03:25:30;100864.72;;;20.48;100.00
4836;BME280;66719;51.226;6.902;2023-08-12T03:27:56;100864.63;;;20.50;100.00
4836;BME280;66719;51.226;6.902;2023-08-12T03:30:23;100869.03;;;20.51;100.00
4836;BME280;66719;51.226;6.902;2023-08-12T03:32:51;100866.44;;;20.49;100.00
4836;BME280;66719;51.226;6.902;2023-08-12T03:35:18;100868.19;;;20.50;100.00
4836;BME280;66719;51.226;6.902;2023-08-12T03:37:45;100861.06;;;20.51;100.00
4836;BME280;66719;51.226;6.902;2023-08-12T03:40:12;100870.84;;;20.50;100.00
4836;BME280;66719;51.226;6.902;2023-08-12T03:42:39;100867.28;;;20.50;100.00
4836;BME280;66719;51.226;6.902;2023-08-12T03:45:06;100863.78;;;20.49;100.00
4836;BME280;66719;51.226;6.902;2023-08-12T03:47:32;100863.78;;;20.49;100.00
4836;BME280;66719;51.226;6.902;2023-08-12T03:49:59;100856.75;;;20.48;100.00
4836;BME280;66719;51.226;6.902;2023-08-12T03:52:25;100847.06;;;20.47;100.00
4836;BME280;66719;51.226;6.902;2023-08-12T03:54:52;100831.94;;;20.48;100.00
4836;BME280;66719;51.226;6.902;2023-08-12T03:57:19;100826.63;;;20.48;100.00
4836;BME280;66719;51.226;6.902;2023-08-12T03:59:46;100827.56;;;20.47;100.00
4836;BME280;66719;51.226;6.902;2023-08-12T04:02:12;100814.16;;;20.48;100.00
4836;BME280;66719;51.226;6.902;2023-08-12T04:04:39;100809.81;;;20.47;100.00
4836;BME280;66719;51.226;6.902;2023-08-12T04:07:05;100807.22;;;20.46;100.00
4836;BME280;66719;51.226;6.902;2023-08-12T04:09:32;100800.09;;;20.46;100.00
4836;BME280;66719;51.226;6.902;2023-08-12T04:11:59;100797.44;;;20.46;100.00
4836;BME280;66719;51.226;6.902;2023-08-12T04:14:25;100802.78;;;20.46;100.00
4836;BME280;66719;51.226;6.902;2023-08-12T04:16:52;100797.53;;;20.45;100.00
4836;BME280;66719;51.226;6.902;2023-08-12T04:19:18;100788.78;;;20.43;100.00
4836;BME280;66719;51.226;6.902;2023-08-12T04:21:45;100787.91;;;20.42;100.00
4836;BME280;66719;51.226;6.902;2023-08-12T04:24:13;100795.19;;;20.39;100.00
4836;BME280;66719;51.226;6.902;2023-08-12T04:26:39;100797.00;;;20.38;100.00
4836;BME280;66719;51.226;6.902;2023-08-12T04:29:06;100791.78;;;20.37;100.00
4836;BME280;66719;51.226;6.902;2023-08-12T04:31:33;100798.03;;;20.36;100.00
4836;BME280;66719;51.226;6.902;2023-08-12T04:34:00;100798.03;;;20.36;100.00
4836;BME280;66719;51.226;6.902;2023-08-12T04:36:26;100799.84;;;20.35;100.00
4836;BME280;66719;51.226;6.902;2023-08-12T04:38:53;100798.03;;;20.36;100.00
4836;BME280;66719;51.226;6.902;2023-08-12T04:41:19;100794.63;;;20.33;100.00
4836;BME280;66719;51.226;6.902;2023-08-12T04:43:46;100786.56;;;20.35;100.00
4836;BME280;66719;51.226;6.902;2023-08-12T04:46:13;100784.66;;;20.37;100.00
4836;BME280;66719;51.226;6.902;2023-08-12T04:48:39;100785.59;;;20.36;100.00
4836;BME280;66719;51.226;6.902;2023-08-12T04:51:06;100793.50;;;20.38;100.00
4836;BME280;66719;51.226;6.902;2023-08-12T04:53:33;100782.75;;;20.39;100.00
4836;BME280;66719;51.226;6.902;2023-08-12T04:55:59;100781.91;;;20.39;100.00
4836;BME280;66719;51.226;6.902;2023-08-12T04:58:26;100783.78;;;20.37;100.00
4836;BME280;66719;51.226;6.902;2023-08-12T05:00:52;100784.66;;;20.37;100.00
4836;BME280;66719;51.226;6.902;2023-08-12T05:03:19;100783.59;;;20.40;100.00
4836;BME280;66719;51.226;6.902;2023-08-12T05:05:52;100784.56;;;20.39;100.00
4836;BME280;66719;51.226;6.902;2023-08-12T05:08:19;100785.41;;;20.39;100.00
4836;BME280;66719;51.226;6.902;2023-08-12T05:10:49;100787.13;;;20.40;100.00
4836;BME280;66719;51.226;6.902;2023-08-12T05:13:16;100783.44;;;20.43;100.00
4836;BME280;66719;51.226;6.902;2023-08-12T05:15:47;100784.41;;;20.42;100.00
4836;BME280;66719;51.226;6.902;2023-08-12T05:18:14;100778.19;;;20.41;100.00
4836;BME280;66719;51.226;6.902;2023-08-12T05:20:42;100780.78;;;20.43;100.00
4836;BME280;66719;51.226;6.902;2023-08-12T05:23:12;100783.50;;;20.41;100.00
4836;BME280;66719;51.226;6.902;2023-08-12T05:25:39;100793.41;;;20.39;100.00
4836;BME280;66719;51.226;6.902;2023-08-12T05:28:06;100784.56;;;20.39;100.00
4836;BME280;66719;51.226;6.902;2023-08-12T05:30:34;100783.69;;;20.38;100.00
4836;BME280;66719;51.226;6.902;2023-08-12T05:33:01;100780.47;;;20.33;100.00
4836;BME280;66719;51.226;6.902;2023-08-12T05:35:32;100775.06;;;20.35;100.00
4836;BME280;66719;51.226;6.902;2023-08-12T05:37:59;100766.97;;;20.36;100.00
4836;BME280;66719;51.226;6.902;2023-08-12T05:40:26;100769.75;;;20.35;100.00
4836;BME280;66719;51.226;6.902;2023-08-12T05:42:53;100767.06;;;20.35;100.00
4836;BME280;66719;51.226;6.902;2023-08-12T05:45:20;100760.09;;;20.32;100.00
4836;BME280;66719;51.226;6.902;2023-08-12T05:47:46;100763.63;;;20.32;100.00
4836;BME280;66719;51.226;6.902;2023-08-12T05:50:13;100771.53;;;20.34;100.00
4836;BME280;66719;51.226;6.902;2023-08-12T05:52:39;100768.88;;;20.34;100.00
4836;BME280;66719;51.226;6.902;2023-08-12T05:55:06;100775.16;;;20.33;100.00
4836;BME280;66719;51.226;6.902;2023-08-12T05:57:33;100781.22;;;20.35;100.00
4836;BME280;66719;51.226;6.902;2023-08-12T05:59:59;100781.31;;;20.33;100.00
4836;BME280;66719;51.226;6.902;2023-08-12T06:02:26;100781.38;;;20.32;100.00
4836;BME280;66719;51.226;6.902;2023-08-12T06:04:53;100779.69;;;20.31;100.00
4836;BME280;66719;51.226;6.902;2023-08-12T06:07:20;100783.38;;;20.28;100.00
4836;BME280;66719;51.226;6.902;2023-08-12T06:09:46;100787.84;;;20.28;100.00
4836;BME280;66719;51.226;6.902;2023-08-12T06:12:13;100795.06;;;20.26;100.00
4836;BME280;66719;51.226;6.902;2023-08-12T06:14:40;100780.97;;;20.24;100.00
4836;BME280;66719;51.226;6.902;2023-08-12T06:17:07;100783.06;;;20.19;100.00
4836;BME280;66719;51.226;6.902;2023-08-12T06:19:33;100775.19;;;20.17;100.00
4836;BME280;66719;51.226;6.902;2023-08-12T06:22:00;100771.66;;;20.17;100.00
4836;BME280;66719;51.226;6.902;2023-08-12T06:24:26;100761.97;;;20.16;100.00
4836;BME280;66719;51.226;6.902;2023-08-12T06:26:53;100754.16;;;20.13;100.00
4836;BME280;66719;51.226;6.902;2023-08-12T06:29:20;100759.47;;;20.13;100.00
4836;BME280;66719;51.226;6.902;2023-08-12T06:31:46;100749.78;;;20.12;100.00
4836;BME280;66719;51.226;6.902;2023-08-12T06:34:13;100745.31;;;20.12;100.00
4836;BME280;66719;51.226;6.902;2023-08-12T06:36:39;100742.66;;;20.12;100.00
4836;BME280;66719;51.226;6.902;2023-08-12T06:39:06;100746.38;;;20.10;100.00
4836;BME280;66719;51.226;6.902;2023-08-12T06:41:32;100743.72;;;20.10;100.00
4836;BME280;66719;51.226;6.902;2023-08-12T06:43:59;100733.22;;;20.07;100.00
4836;BME280;66719;51.226;6.902;2023-08-12T06:46:27;100743.88;;;20.07;100.00
4836;BME280;66719;51.226;6.902;2023-08-12T06:48:54;100730.75;;;20.03;100.00
4836;BME280;66719;51.226;6.902;2023-08-12T06:51:21;100742.94;;;20.08;100.00
4836;BME280;66719;51.226;6.902;2023-08-12T06:53:48;100740.44;;;20.04;100.00
4836;BME280;66719;51.226;6.902;2023-08-12T06:56:14;100736.06;;;20.03;100.00
4836;BME280;66719;51.226;6.902;2023-08-12T06:58:41;100725.44;;;20.03;100.00
4836;BME280;66719;51.226;6.902;2023-08-12T07:01:07;100718.06;;;20.09;100.00
4836;BME280;66719;51.226;6.902;2023-08-12T07:03:34;100701.06;;;20.11;100.00
4836;BME280;66719;51.226;6.902;2023-08-12T07:06:01;100695.50;;;20.16;100.00
4836;BME280;66719;51.226;6.902;2023-08-12T07:08:27;100690.75;;;20.21;100.00
4836;BME280;66719;51.226;6.902;2023-08-12T07:10:54;100707.56;;;20.21;100.00
4836;BME280;66719;51.226;6.902;2023-08-12T07:13:20;100721.72;;;20.22;100.00
4836;BME280;66719;51.226;6.902;2023-08-12T07:15:47;100743.75;;;20.24;100.00
4836;BME280;66719;51.226;6.902;2023-08-12T07:18:13;100743.84;;;20.22;100.00
4836;BME280;66719;51.226;6.902;2023-08-12T07:20:40;100738.50;;;20.22;100.00
4836;BME280;66719;51.226;6.902;2023-08-12T07:23:06;100742.88;;;20.23;100.00
4836;BME280;66719;51.226;6.902;2023-08-12T07:25:33;100744.13;;;20.18;100.00
4836;BME280;66719;51.226;6.902;2023-08-12T07:27:59;100724.56;;;20.19;100.00
4836;BME280;66719;51.226;6.902;2023-08-12T07:30:26;100741.38;;;20.19;100.00
4836;BME280;66719;51.226;6.902;2023-08-12T07:32:53;100747.19;;;20.26;100.00
4836;BME280;66719;51.226;6.902;2023-08-12T07:35:19;100751.22;;;20.33;100.00
4836;BME280;66719;51.226;6.902;2023-08-12T07:37:46;100742.84;;;20.39;100.00
4836;BME280;66719;51.226;6.902;2023-08-12T07:40:12;100740.03;;;20.42;100.00
4836;BME280;66719;51.226;6.902;2023-08-12T07:42:39;100717.63;;;20.46;100.00
4836;BME280;66719;51.226;6.902;2023-08-12T07:45:06;100734.34;;;20.48;100.00
4836;BME280;66719;51.226;6.902;2023-08-12T07:47:33;100735.91;;;20.52;100.00
4836;BME280;66719;51.226;6.902;2023-08-12T07:50:00;100736.75;;;20.53;100.00
4836;BME280;66719;51.226;6.902;2023-08-12T07:52:27;100735.91;;;20.52;100.00
4836;BME280;66719;51.226;6.902;2023-08-12T07:54:53;100733.59;;;20.46;100.00
4836;BME280;66719;51.226;6.902;2023-08-12T07:57:20;100726.72;;;20.42;100.00
4836;BME280;66719;51.226;6.902;2023-08-12T07:59:51;100729.31;;;20.44;100.00
4836;BME280;66719;51.226;6.902;2023-08-12T08:02:17;100728.47;;;20.43;100.00
4836;BME280;66719;51.226;6.902;2023-08-12T08:04:44;100736.34;;;20.45;100.00
4836;BME280;66719;51.226;6.902;2023-08-12T08:07:11;100731.88;;;20.45;100.00
4836;BME280;66719;51.226;6.902;2023-08-12T08:09:37;100730.94;;;20.46;100.00
4836;BME280;66719;51.226;6.902;2023-08-12T08:12:04;100723.91;;;20.45;100.00
4836;BME280;66719;51.226;6.902;2023-08-12T08:14:31;100730.25;;;20.43;100.00
4836;BME280;66719;51.226;6.902;2023-08-12T08:16:57;100731.97;;;20.44;100.00
4836;BME280;66719;51.226;6.902;2023-08-12T08:19:24;100724.00;;;20.44;100.00
4836;BME280;66719;51.226;6.902;2023-08-12T08:21:57;100726.66;;;20.44;100.00
4836;BME280;66719;51.226;6.902;2023-08-12T08:24:23;100719.59;;;20.43;100.00
4836;BME280;66719;51.226;6.902;2023-08-12T08:26:50;100722.00;;;20.47;100.00
4836;BME280;66719;51.226;6.902;2023-08-12T08:29:16;100724.50;;;20.50;100.00
4836;BME280;66719;51.226;6.902;2023-08-12T08:31:43;100717.06;;;20.55;100.00
4836;BME280;66719;51.226;6.902;2023-08-12T08:34:10;100725.56;;;20.62;100.00
4836;BME280;66719;51.226;6.902;2023-08-12T08:36:36;100733.53;;;20.62;100.00
4836;BME280;66719;51.226;6.902;2023-08-12T08:39:03;100734.28;;;20.64;100.00
4836;BME280;66719;51.226;6.902;2023-08-12T08:41:38;100730.97;;;20.60;100.00
4836;BME280;66719;51.226;6.902;2023-08-12T08:44:07;100717.47;;;20.64;100.00
4836;BME280;66719;51.226;6.902;2023-08-12T08:46:34;100727.84;;;20.68;100.00
4836;BME280;66719;51.226;6.902;2023-08-12T08:49:01;100731.19;;;20.72;100.00
4836;BME280;66719;51.226;6.902;2023-08-12T08:51:31;100726.59;;;20.74;100.00
4836;BME280;66719;51.226;6.902;2023-08-12T08:53:58;100737.34;;;20.72;100.00
4836;BME280;66719;51.226;6.902;2023-08-12T08:56:31;100734.59;;;20.74;100.00
4836;BME280;66719;51.226;6.902;2023-08-12T08:58:58;100742.41;;;20.77;100.00
4836;BME280;66719;51.226;6.902;2023-08-12T09:01:27;100736.13;;;20.78;100.00
4836;BME280;66719;51.226;6.902;2023-08-12T09:03:55;100740.78;;;20.74;100.00
4836;BME280;66719;51.226;6.902;2023-08-12T09:06:28;100743.44;;;20.74;100.00
4836;BME280;66719;51.226;6.902;2023-08-12T09:08:55;100734.59;;;20.74;100.00
4836;BME280;66719;51.226;6.902;2023-08-12T09:11:22;100730.03;;;20.76;100.00
4836;BME280;66719;51.226;6.902;2023-08-12T09:13:49;100732.63;;;20.77;100.00
4836;BME280;66719;51.226;6.902;2023-08-12T09:16:16;100723.59;;;20.80;100.00
4836;BME280;66719;51.226;6.902;2023-08-12T09:18:43;100729.50;;;20.85;100.00
4836;BME280;66719;51.226;6.902;2023-08-12T09:21:11;100731.09;;;20.87;100.00
4836;BME280;66719;51.226;6.902;2023-08-12T09:23:43;100745.06;;;20.91;100.00
4836;BME280;66719;51.226;6.902;2023-08-12T09:26:19;100737.75;;;20.95;100.00
4836;BME280;66719;51.226;6.902;2023-08-12T09:28:47;100742.59;;;21.02;100.00
4836;BME280;66719;51.226;6.902;2023-08-12T09:31:28;100739.66;;;21.07;100.00
4836;BME280;66719;51.226;6.902;2023-08-12T09:34:05;100737.66;;;21.10;100.00
4836;BME280;66719;51.226;6.902;2023-08-12T09:36:35;100738.44;;;21.12;100.00
4836;BME280;66719;51.226;6.902;2023-08-12T09:39:06;100745.28;;;21.16;100.00
4836;BME280;66719;51.226;6.902;2023-08-12T09:41:33;100739.84;;;21.18;100.00
4836;BME280;66719;51.226;6.902;2023-08-12T09:44:02;100746.59;;;21.24;100.00
4836;BME280;66719;51.226;6.902;2023-08-12T09:46:32;100744.13;;;21.21;100.00
4836;BME280;66719;51.226;6.902;2023-08-12T09:48:59;100741.66;;;21.17;100.00
4836;BME280;66719;51.226;6.902;2023-08-12T09:51:26;100739.94;;;21.16;100.00
4836;BME280;66719;51.226;6.902;2023-08-12T09:56:23;100740.16;;;21.13;100.00
4836;BME280;66719;51.226;6.902;2023-08-12T09:58:50;100737.38;;;21.15;100.00
4836;BME280;66719;51.226;6.902;2023-08-12T10:01:18;100748.88;;;21.15;100.00
4836;BME280;66719;51.226;6.902;2023-08-12T10:03:49;100744.63;;;21.13;100.00
4836;BME280;66719;51.226;6.902;2023-08-12T10:06:17;100740.16;;;21.13;100.00
4836;BME280;66719;51.226;6.902;2023-08-12T10:08:47;100736.53;;;21.14;100.00
4836;BME280;66719;51.226;6.902;2023-08-12T10:11:14;100723.41;;;21.11;100.00
4836;BME280;66719;51.226;6.902;2023-08-12T10:13:42;100729.19;;;21.18;100.00
4836;BME280;66719;51.226;6.902;2023-08-12T10:16:09;100732.09;;;21.29;100.00
4836;BME280;66719;51.226;6.902;2023-08-12T10:18:39;100729.56;;;21.26;100.00
4836;BME280;66719;51.226;6.902;2023-08-12T10:21:09;100725.28;;;21.24;100.00
4836;BME280;66719;51.226;6.902;2023-08-12T10:23:36;100727.09;;;21.23;100.00
4836;BME280;66719;51.226;6.902;2023-08-12T10:26:05;100721.50;;;21.28;100.00
4836;BME280;66719;51.226;6.902;2023-08-12T10:28:33;100724.94;;;21.30;100.00
4836;BME280;66719;51.226;6.902;2023-08-12T10:31:04;100731.31;;;21.27;100.00
4836;BME280;66719;51.226;6.902;2023-08-12T10:33:42;100735.00;;;21.25;100.00
4836;BME280;66719;51.226;6.902;2023-08-12T10:36:09;100729.75;;;21.23;100.00
4836;BME280;66719;51.226;6.902;2023-08-12T10:38:36;100729.50;;;21.28;100.00
4836;BME280;66719;51.226;6.902;2023-08-12T10:41:23;100728.56;;;21.29;100.00
4836;BME280;66719;51.226;6.902;2023-08-12T10:44:01;100724.00;;;21.31;100.00
4836;BME280;66719;51.226;6.902;2023-08-12T10:46:33;100720.91;;;21.37;100.00
4836;BME280;66719;51.226;6.902;2023-08-12T10:49:05;100723.41;;;21.40;100.00
4836;BME280;66719;51.226;6.902;2023-08-12T10:54:20;100715.22;;;21.43;100.00
4836;BME280;66719;51.226;6.902;2023-08-12T11:02:25;100718.84;;;21.28;100.00
4836;BME280;66719;51.226;6.902;2023-08-12T11:05:07;100724.66;;;21.20;100.00
4836;BME280;66719;51.226;6.902;2023-08-12T11:07:59;100738.81;;;21.06;100.00
4836;BME280;66719;51.226;6.902;2023-08-12T11:10:31;100747.94;;;20.88;100.00
4836;BME280;66719;51.226;6.902;2023-08-12T11:13:00;100734.97;;;20.82;100.00
4836;BME280;66719;51.226;6.902;2023-08-12T11:15:43;100732.53;;;20.79;100.00
4836;BME280;66719;51.226;6.902;2023-08-12T11:18:15;100733.75;;;20.87;100.00
4836;BME280;66719;51.226;6.902;2023-08-12T11:20:43;100717.69;;;20.89;100.00
4836;BME280;66719;51.226;6.902;2023-08-12T11:23:10;100715.41;;;20.97;100.00
4836;BME280;66719;51.226;6.902;2023-08-12T11:25:39;100718.63;;;21.02;100.00
4836;BME280;66719;51.226;6.902;2023-08-12T11:28:07;100719.78;;;20.98;100.00
4836;BME280;66719;51.226;6.902;2023-08-12T11:30:34;100715.09;;;21.02;100.00
4836;BME280;66719;51.226;6.902;2023-08-12T11:33:01;100712.06;;;21.08;100.00
4836;BME280;66719;51.226;6.902;2023-08-12T11:35:29;100697.69;;;21.10;100.00
4836;BME280;66719;51.226;6.902;2023-08-12T11:37:57;100706.66;;;21.24;100.00
4836;BME280;66719;51.226;6.902;2023-08-12T11:40:25;100700.13;;;21.29;100.00
4836;BME280;66719;51.226;6.902;2023-08-12T11:42:53;100706.84;;;21.35;100.00
4836;BME280;66719;51.226;6.902;2023-08-12T11:45:22;100712.44;;;21.44;100.00
4836;BME280;66719;51.226;6.902;2023-08-12T11:47:49;100713.50;;;21.42;100.00
4836;BME280;66719;51.226;6.902;2023-08-12T11:50:22;100716.75;;;21.33;100.00
4836;BME280;66719;51.226;6.902;2023-08-12T11:52:50;100709.34;;;21.38;100.00
4836;BME280;66719;51.226;6.902;2023-08-12T11:55:17;100706.72;;;21.51;100.00
4836;BME280;66719;51.226;6.902;2023-08-12T11:57:44;100708.50;;;21.64;100.00
4836;BME280;66719;51.226;6.902;2023-08-12T12:00:12;100709.22;;;21.81;100.00
4836;BME280;66719;51.226;6.902;2023-08-12T12:02:54;100714.00;;;21.76;100.00
4836;BME280;66719;51.226;6.902;2023-08-12T12:05:28;100707.84;;;21.88;100.00
4836;BME280;66719;51.226;6.902;2023-08-12T12:07:56;100697.16;;;21.88;100.00
4836;BME280;66719;51.226;6.902;2023-08-12T12:10:28;100691.56;;;21.92;100.00
4836;BME280;66719;51.226;6.902;2023-08-12T12:13:01;100694.75;;;21.97;100.00
4836;BME280;66719;51.226;6.902;2023-08-12T12:15:28;100693.47;;;21.90;100.00
4836;BME280;66719;51.226;6.902;2023-08-12T12:17:55;100691.84;;;21.88;100.00
4836;BME280;66719;51.226;6.902;2023-08-12T12:20:22;100684.97;;;21.98;100.00
4836;BME280;66719;51.226;6.902;2023-08-12T12:22:49;100684.63;;;22.02;100.00
4836;BME280;66719;51.226;6.902;2023-08-12T12:25:17;100684.28;;;21.94;100.00
4836;BME280;66719;51.226;6.902;2023-08-12T12:27:47;100686.00;;;21.95;100.00
4836;BME280;66719;51.226;6.902;2023-08-12T12:30:14;100685.16;;;21.95;100.00
4836;BME280;66719;51.226;6.902;2023-08-12T12:32:41;100691.94;;;21.86;100.00
4836;BME280;66719;51.226;6.902;2023-08-12T12:35:08;100693.41;;;21.78;100.00
4836;BME280;66719;51.226;6.902;2023-08-12T12:37:35;100696.38;;;21.73;100.00
4836;BME280;66719;51.226;6.902;2023-08-12T12:40:04;100697.44;;;21.70;100.00
4836;BME280;66719;51.226;6.902;2023-08-12T12:42:32;100713.25;;;21.73;100.00
4836;BME280;66719;51.226;6.902;2023-08-12T12:44:58;100711.34;;;21.61;100.00
4836;BME280;66719;51.226;6.902;2023-08-12T12:47:25;100725.28;;;21.52;100.00
4836;BME280;66719;51.226;6.902;2023-08-12T12:49:59;100735.78;;;21.27;100.00
4836;BME280;66719;51.226;6.902;2023-08-12T12:52:25;100744.34;;;21.03;100.00
4836;BME280;66719;51.226;6.902;2023-08-12T12:54:52;100748.59;;;20.77;100.00
4836;BME280;66719;51.226;6.902;2023-08-12T12:57:18;100736.19;;;20.62;100.00
4836;BME280;66719;51.226;6.902;2023-08-12T12:59:45;100741.97;;;20.54;100.00
4836;BME280;66719;51.226;6.902;2023-08-12T13:02:11;100745.28;;;20.44;100.00
4836;BME280;66719;51.226;6.902;2023-08-12T13:04:38;100744.56;;;20.40;100.00